createdAt,value
2023-08-07T00:00:31.163Z,31.38
2023-08-07T00:01:31.216Z,31.41
2023-08-07T00:02:31.210Z,31.35
2023-08-07T00:03:31.253Z,31.31
2023-08-07T00:04:31.262Z,31.33
2023-08-07T00:05:31.303Z,31.36
2023-08-07T00:06:31.401Z,31.37
2023-08-07T00:07:31.370Z,31.35
2023-08-07T00:08:31.391Z,31.38
2023-08-07T00:09:31.427Z,31.39
2023-08-07T00:10:31.468Z,31.36
2023-08-07T00:11:31.517Z,31.42
2023-08-07T00:12:31.530Z,31.40
2023-08-07T00:13:31.593Z,31.39
2023-08-07T00:14:31.635Z,31.33
2023-08-07T00:15:31.664Z,31.34
2023-08-07T00:16:31.719Z,31.39
2023-08-07T00:17:31.818Z,31.41
2023-08-07T00:18:31.784Z,31.44
2023-08-07T00:19:31.842Z,31.43
2023-08-07T00:20:31.884Z,31.42
2023-08-07T00:21:31.889Z,31.44
2023-08-07T00:22:31.938Z,31.41
2023-08-07T00:23:31.982Z,31.45
2023-08-07T00:24:32.000Z,31.43
2023-08-07T00:25:32.078Z,31.45
2023-08-07T00:26:32.099Z,31.44
2023-08-07T00:27:32.137Z,31.42
2023-08-07T00:28:32.177Z,31.42
2023-08-07T00:29:32.244Z,31.44
2023-08-07T00:30:32.271Z,31.44
2023-08-07T00:31:32.479Z,31.40
2023-08-07T00:32:32.428Z,31.39
2023-08-07T00:33:32.438Z,31.40
2023-08-07T00:34:32.451Z,31.38
2023-08-07T00:35:32.474Z,31.38
2023-08-07T00:36:32.500Z,31.42
2023-08-07T00:37:32.519Z,31.38
2023-08-07T00:38:32.572Z,31.38
2023-08-07T00:39:32.592Z,31.39
2023-08-07T00:40:32.613Z,31.39
2023-08-07T00:41:32.684Z,31.44
2023-08-07T00:42:32.712Z,31.40
2023-08-07T00:43:32.783Z,31.35
2023-08-07T00:44:32.810Z,31.38
2023-08-07T00:45:32.857Z,31.35
2023-08-07T00:46:32.949Z,31.29
2023-08-07T00:47:32.988Z,31.31
2023-08-07T00:48:33.024Z,31.34
2023-08-07T00:49:33.044Z,31.35
2023-08-07T00:50:46.042Z,31.30
2023-08-07T00:51:34.103Z,31.27
2023-08-07T00:52:33.060Z,31.23
2023-08-07T00:53:33.077Z,31.26
2023-08-07T00:54:33.088Z,31.25
2023-08-07T00:55:33.054Z,31.21
2023-08-07T00:56:33.074Z,31.19
2023-08-07T00:57:33.050Z,31.24
2023-08-07T00:58:33.074Z,31.25
2023-08-07T00:59:33.038Z,31.17
2023-08-07T01:00:33.117Z,31.23
2023-08-07T01:01:33.101Z,31.20
2023-08-07T01:02:33.201Z,31.16
2023-08-07T01:03:33.276Z,31.13
2023-08-07T01:04:33.285Z,31.06
2023-08-07T01:05:33.333Z,31.12
2023-08-07T01:06:33.361Z,31.07
2023-08-07T01:07:33.399Z,31.11
2023-08-07T01:08:33.466Z,31.11
2023-08-07T01:09:33.531Z,31.10
2023-08-07T01:10:33.558Z,31.15
2023-08-07T01:11:33.620Z,31.08
2023-08-07T01:12:33.652Z,31.09
2023-08-07T01:13:33.712Z,31.08
2023-08-07T01:14:33.740Z,30.99
2023-08-07T01:15:33.802Z,31.05
2023-08-07T01:16:33.906Z,31.03
2023-08-07T01:17:33.931Z,31.05
2023-08-07T01:18:33.936Z,31.06
2023-08-07T01:19:33.979Z,31.08
2023-08-07T01:20:34.018Z,31.05
2023-08-07T01:21:34.079Z,31.02
2023-08-07T01:22:34.133Z,31.07
2023-08-07T01:23:34.149Z,31.04
2023-08-07T01:24:34.198Z,31.02
2023-08-07T01:25:34.224Z,31.00
2023-08-07T01:26:34.289Z,30.96
2023-08-07T01:27:34.345Z,30.97
2023-08-07T01:28:34.402Z,31.00
2023-08-07T01:29:34.522Z,30.99
2023-08-07T01:30:34.495Z,30.94
2023-08-07T01:31:34.535Z,30.96
2023-08-07T01:32:34.597Z,30.92
2023-08-07T01:33:34.601Z,31.02
2023-08-07T01:34:34.651Z,31.02
2023-08-07T01:35:34.738Z,30.96
2023-08-07T01:36:34.751Z,31.00
2023-08-07T01:37:34.803Z,30.99
2023-08-07T01:38:34.871Z,31.02
2023-08-07T01:39:34.915Z,31.00
2023-08-07T01:40:34.934Z,30.93
2023-08-07T01:41:35.003Z,30.90
2023-08-07T01:42:35.067Z,30.98
2023-08-07T01:43:35.095Z,30.95
2023-08-07T01:44:35.172Z,30.95
2023-08-07T01:45:35.193Z,30.90
2023-08-07T01:46:35.301Z,30.90
2023-08-07T01:47:35.384Z,30.89
2023-08-07T01:48:35.351Z,30.86
2023-08-07T01:49:35.391Z,30.91
2023-08-07T01:50:35.440Z,30.88
2023-08-07T01:51:35.489Z,30.80
2023-08-07T01:52:35.526Z,30.78
2023-08-07T01:53:35.569Z,30.86
2023-08-07T01:54:35.615Z,30.85
2023-08-07T01:55:35.704Z,30.84
2023-08-07T01:56:35.703Z,30.86
2023-08-07T01:57:35.752Z,30.82
2023-08-07T01:58:35.823Z,30.82
2023-08-07T01:59:35.866Z,30.85
2023-08-07T02:00:35.910Z,30.83
2023-08-07T02:01:35.984Z,30.74
2023-08-07T02:02:36.094Z,30.82
2023-08-07T02:03:36.065Z,30.77
2023-08-07T02:04:36.117Z,30.72
2023-08-07T02:05:36.167Z,30.78
2023-08-07T02:06:36.170Z,30.75
2023-08-07T02:07:36.215Z,30.66
2023-08-07T02:08:36.301Z,30.73
2023-08-07T02:09:36.345Z,30.70
2023-08-07T02:10:36.412Z,30.75
2023-08-07T02:11:36.415Z,30.70
2023-08-07T02:12:36.472Z,30.67
2023-08-07T02:13:36.531Z,30.66
2023-08-07T02:14:36.573Z,30.70
2023-08-07T02:15:36.628Z,30.75
2023-08-07T02:16:36.759Z,30.69
2023-08-07T02:17:36.743Z,30.73
2023-08-07T02:18:36.768Z,30.73
2023-08-07T02:19:36.841Z,30.73
2023-08-07T02:20:36.914Z,30.72
2023-08-07T02:21:37.012Z,30.73
2023-08-07T02:22:37.038Z,30.70
2023-08-07T02:23:37.104Z,30.70
2023-08-07T02:24:37.102Z,30.75
2023-08-07T02:25:37.180Z,30.73
2023-08-07T02:26:37.197Z,30.73
2023-08-07T02:27:37.316Z,30.76
2023-08-07T02:28:37.279Z,30.76
2023-08-07T02:29:37.354Z,30.77
2023-08-07T02:30:37.415Z,30.77
2023-08-07T02:31:37.498Z,30.77
2023-08-07T02:32:37.580Z,30.74
2023-08-07T02:33:37.528Z,30.74
2023-08-07T02:34:37.599Z,30.76
2023-08-07T02:35:37.663Z,30.77
2023-08-07T02:36:37.673Z,30.75
2023-08-07T02:37:37.752Z,30.75
2023-08-07T02:38:37.898Z,30.79
2023-08-07T02:39:37.821Z,30.75
2023-08-07T02:40:37.860Z,30.81
2023-08-07T02:41:37.889Z,30.78
2023-08-07T02:42:37.921Z,30.82
2023-08-07T02:43:38.023Z,30.80
2023-08-07T02:44:38.034Z,30.77
2023-08-07T02:45:38.112Z,30.83
2023-08-07T02:46:38.130Z,30.80
2023-08-07T02:47:38.233Z,30.76
2023-08-07T02:48:38.237Z,30.77
2023-08-07T02:49:38.292Z,30.74
2023-08-07T02:50:38.329Z,30.75
2023-08-07T02:51:38.377Z,30.70
2023-08-07T02:52:38.451Z,30.70
2023-08-07T02:53:38.492Z,30.71
2023-08-07T02:54:38.524Z,30.68
2023-08-07T02:55:38.572Z,30.64
2023-08-07T02:56:38.625Z,30.67
2023-08-07T02:57:38.702Z,30.53
2023-08-07T02:58:38.744Z,30.52
2023-08-07T02:59:38.815Z,30.51
2023-08-07T03:00:38.854Z,30.48
2023-08-07T03:01:38.969Z,30.54
2023-08-07T03:02:39.030Z,30.52
2023-08-07T03:03:39.013Z,30.50
2023-08-07T03:04:39.076Z,30.50
2023-08-07T03:05:39.131Z,30.46
2023-08-07T03:06:39.228Z,30.40
2023-08-07T03:07:39.213Z,30.44
2023-08-07T03:08:39.282Z,30.35
2023-08-07T03:09:39.335Z,30.39
2023-08-07T03:10:39.390Z,30.49
2023-08-07T03:11:39.569Z,30.44
2023-08-07T03:12:39.519Z,30.45
2023-08-07T03:13:39.566Z,30.44
2023-08-07T03:14:39.600Z,30.48
2023-08-07T03:15:39.666Z,30.51
2023-08-07T03:16:39.729Z,30.49
2023-08-07T03:17:39.845Z,30.46
2023-08-07T03:18:39.837Z,30.51
2023-08-07T03:19:39.885Z,30.51
2023-08-07T03:20:39.946Z,30.53
2023-08-07T03:21:40.022Z,30.51
2023-08-07T03:22:40.104Z,30.50
2023-08-07T03:23:40.136Z,30.50
2023-08-07T03:24:40.232Z,30.51
2023-08-07T03:25:40.270Z,30.52
2023-08-07T03:26:40.321Z,30.56
2023-08-07T03:27:40.338Z,30.55
2023-08-07T03:28:40.415Z,30.53
2023-08-07T03:29:40.484Z,30.52
2023-08-07T03:30:40.530Z,30.55
2023-08-07T03:31:40.656Z,30.56
2023-08-07T03:32:40.707Z,30.59
2023-08-07T03:33:40.762Z,30.57
2023-08-07T03:34:40.760Z,30.56
2023-08-07T03:35:40.836Z,30.60
2023-08-07T03:36:40.870Z,30.60
2023-08-07T03:38:40.968Z,30.63
2023-08-07T03:39:40.996Z,30.56
2023-08-07T03:40:41.078Z,30.62
2023-08-07T03:41:41.200Z,30.58
2023-08-07T03:42:41.175Z,30.60
2023-08-07T03:43:41.239Z,30.61
2023-08-07T03:44:41.307Z,30.62
2023-08-07T03:45:41.356Z,30.68
2023-08-07T03:46:41.362Z,30.71
2023-08-07T03:47:41.431Z,30.69
2023-08-07T03:48:41.457Z,30.65
2023-08-07T03:49:41.514Z,30.65
2023-08-07T03:50:41.570Z,30.66
2023-08-07T03:51:41.595Z,30.68
2023-08-07T03:52:41.641Z,30.70
2023-08-07T03:53:41.682Z,30.71
2023-08-07T03:54:41.745Z,30.69
2023-08-07T03:55:41.872Z,30.70
2023-08-07T03:56:41.860Z,30.70
2023-08-07T03:57:41.926Z,30.71
2023-08-07T03:58:41.990Z,30.69
2023-08-07T03:59:42.017Z,30.70
2023-08-07T04:00:42.116Z,30.73
2023-08-07T04:01:42.142Z,30.73
2023-08-07T04:02:42.193Z,30.68
2023-08-07T04:03:42.298Z,30.66
2023-08-07T04:04:42.261Z,30.67
2023-08-07T04:05:42.326Z,30.70
2023-08-07T04:06:42.435Z,30.67
2023-08-07T04:07:42.416Z,30.71
2023-08-07T04:08:42.474Z,30.69
2023-08-07T04:09:42.523Z,30.68
2023-08-07T04:10:42.574Z,30.70
2023-08-07T04:11:42.632Z,30.65
2023-08-07T04:12:42.693Z,30.67
2023-08-07T04:13:42.729Z,30.66
2023-08-07T04:14:42.796Z,30.66
2023-08-07T04:15:42.839Z,30.68
2023-08-07T04:16:42.894Z,30.65
2023-08-07T04:17:43.018Z,30.69
2023-08-07T04:18:42.952Z,30.63
2023-08-07T04:19:42.995Z,30.66
2023-08-07T04:20:43.047Z,30.64
2023-08-07T04:21:43.135Z,30.67
2023-08-07T04:22:43.157Z,30.67
2023-08-07T04:23:43.756Z,30.67
2023-08-07T04:24:43.251Z,30.64
2023-08-07T04:25:43.295Z,30.64
2023-08-07T04:26:43.367Z,30.64
2023-08-07T04:27:43.388Z,30.64
2023-08-07T04:28:43.451Z,30.60
2023-08-07T04:29:43.496Z,30.61
2023-08-07T04:30:43.562Z,30.63
2023-08-07T04:31:43.637Z,30.63
2023-08-07T04:32:43.700Z,30.62
2023-08-07T04:33:43.699Z,30.59
2023-08-07T04:34:43.744Z,30.56
2023-08-07T04:35:43.806Z,30.45
2023-08-07T04:36:43.848Z,30.51
2023-08-07T04:37:43.902Z,30.53
2023-08-07T04:38:43.971Z,30.47
2023-08-07T04:39:44.010Z,30.51
2023-08-07T04:40:44.045Z,30.50
2023-08-07T04:41:44.117Z,30.48
2023-08-07T04:42:44.147Z,30.53
2023-08-07T04:43:44.217Z,30.48
2023-08-07T04:44:44.269Z,30.44
2023-08-07T04:45:44.294Z,30.42
2023-08-07T04:46:44.388Z,30.46
2023-08-07T04:47:44.443Z,30.38
2023-08-07T04:48:44.506Z,30.40
2023-08-07T04:49:44.536Z,30.38
2023-08-07T04:50:44.600Z,30.39
2023-08-07T04:51:44.629Z,30.39
2023-08-07T04:52:44.682Z,30.44
2023-08-07T04:53:44.729Z,30.40
2023-08-07T04:54:44.783Z,30.38
2023-08-07T04:55:44.891Z,30.38
2023-08-07T04:56:44.923Z,30.35
2023-08-07T04:57:44.943Z,30.34
2023-08-07T04:58:45.009Z,30.35
2023-08-07T04:59:45.062Z,30.37
2023-08-07T05:00:45.116Z,30.33
2023-08-07T05:01:45.173Z,30.36
2023-08-07T05:02:45.361Z,30.35
2023-08-07T05:03:45.358Z,30.42
2023-08-07T05:04:45.332Z,30.38
2023-08-07T05:05:45.396Z,30.35
2023-08-07T05:06:45.452Z,30.40
2023-08-07T05:07:45.529Z,30.31
2023-08-07T05:08:45.560Z,30.33
2023-08-07T05:09:45.645Z,30.33
2023-08-07T05:10:45.677Z,30.40
2023-08-07T05:11:45.720Z,30.34
2023-08-07T05:12:45.948Z,30.35
2023-08-07T05:13:45.789Z,30.36
2023-08-07T05:14:45.833Z,30.35
2023-08-07T05:15:45.937Z,30.34
2023-08-07T05:16:46.039Z,30.33
2023-08-07T05:17:46.030Z,30.30
2023-08-07T05:18:46.605Z,30.30
2023-08-07T05:19:46.093Z,30.34
2023-08-07T05:20:46.158Z,30.31
2023-08-07T05:21:46.198Z,30.34
2023-08-07T05:22:46.271Z,30.31
2023-08-07T05:23:46.290Z,30.29
2023-08-07T05:24:46.339Z,30.28
2023-08-07T05:25:47.788Z,30.29
2023-08-07T05:26:46.404Z,30.30
2023-08-07T05:27:46.417Z,30.33
2023-08-07T05:28:46.384Z,30.30
2023-08-07T05:29:46.361Z,30.28
2023-08-07T05:30:46.415Z,30.26
2023-08-07T05:31:46.360Z,30.28
2023-08-07T05:32:46.389Z,30.29
2023-08-07T05:33:46.388Z,30.30
2023-08-07T05:34:46.320Z,30.30
2023-08-07T05:35:46.325Z,30.28
2023-08-07T05:36:46.325Z,30.28
2023-08-07T05:37:46.340Z,30.27
2023-08-07T05:38:46.284Z,30.27
2023-08-07T05:39:46.308Z,30.30
2023-08-07T05:40:46.299Z,30.28
2023-08-07T05:41:46.344Z,30.31
2023-08-07T05:42:46.292Z,30.26
2023-08-07T05:43:46.284Z,30.28
2023-08-07T05:44:46.246Z,30.29
2023-08-07T05:45:46.254Z,30.35
2023-08-07T05:46:46.238Z,30.32
2023-08-07T05:47:46.292Z,30.32
2023-08-07T05:48:46.216Z,30.33
2023-08-07T05:49:46.206Z,30.33
2023-08-07T05:50:46.228Z,30.33
2023-08-07T05:51:46.222Z,30.35
2023-08-07T05:52:46.192Z,30.37
2023-08-07T05:53:46.183Z,30.41
2023-08-07T05:54:46.201Z,30.34
2023-08-07T05:55:46.207Z,30.40
2023-08-07T05:56:46.165Z,30.44
2023-08-07T05:57:46.164Z,30.49
2023-08-07T05:58:46.180Z,30.50
2023-08-07T05:59:46.148Z,30.56
2023-08-07T06:00:46.143Z,30.52
2023-08-07T06:01:46.209Z,30.55
2023-08-07T06:02:46.165Z,30.52
2023-08-07T06:03:46.207Z,30.55
2023-08-07T06:04:46.109Z,30.53
2023-08-07T06:05:46.101Z,30.56
2023-08-07T06:06:46.086Z,30.59
2023-08-07T06:07:46.157Z,30.60
2023-08-07T06:08:46.201Z,30.58
2023-08-07T06:09:46.225Z,30.58
2023-08-07T06:10:46.263Z,30.56
2023-08-07T06:11:46.303Z,30.55
2023-08-07T06:12:46.346Z,30.61
2023-08-07T06:13:46.407Z,30.62
2023-08-07T06:14:46.474Z,30.54
2023-08-07T06:15:46.472Z,30.54
2023-08-07T06:16:46.573Z,30.66
2023-08-07T06:17:46.563Z,30.67
2023-08-07T06:18:46.615Z,30.63
2023-08-07T06:19:46.630Z,30.58
2023-08-07T06:20:46.697Z,30.70
2023-08-07T06:21:46.724Z,30.73
2023-08-07T06:22:46.760Z,30.74
2023-08-07T06:23:46.856Z,30.80
2023-08-07T06:24:46.881Z,30.81
2023-08-07T06:25:46.892Z,30.85
2023-08-07T06:26:46.954Z,30.85
2023-08-07T06:27:46.992Z,30.88
2023-08-07T06:28:47.042Z,30.91
2023-08-07T06:29:47.080Z,30.96
2023-08-07T06:30:47.132Z,30.95
2023-08-07T06:31:47.173Z,31.00
2023-08-07T06:32:47.196Z,31.01
2023-08-07T06:33:47.243Z,31.04
2023-08-07T06:34:47.309Z,31.02
2023-08-07T06:35:47.316Z,31.05
2023-08-07T06:36:47.350Z,31.07
2023-08-07T06:37:47.402Z,31.01
2023-08-07T06:38:47.442Z,31.00
2023-08-07T06:39:49.571Z,31.00
2023-08-07T06:40:47.544Z,30.97
2023-08-07T06:41:47.564Z,31.00
2023-08-07T06:42:47.603Z,30.96
2023-08-07T06:43:47.672Z,30.90
2023-08-07T06:44:47.676Z,30.84
2023-08-07T06:45:47.738Z,30.87
2023-08-07T06:46:47.747Z,30.86
2023-08-07T06:47:47.869Z,30.88
2023-08-07T06:48:47.830Z,30.82
2023-08-07T06:49:47.839Z,30.76
2023-08-07T06:50:47.874Z,30.74
2023-08-07T06:51:47.900Z,30.73
2023-08-07T06:52:47.942Z,30.72
2023-08-07T06:53:47.964Z,30.72
2023-08-07T06:54:48.027Z,30.67
2023-08-07T06:55:48.000Z,30.63
2023-08-07T06:56:48.038Z,30.62
2023-08-07T06:57:48.085Z,30.58
2023-08-07T06:58:48.111Z,30.54
2023-08-07T06:59:48.153Z,30.58
2023-08-07T07:00:48.127Z,30.56
2023-08-07T07:01:48.244Z,30.60
2023-08-07T07:02:48.194Z,30.62
2023-08-07T07:03:48.353Z,30.69
2023-08-07T07:04:48.239Z,30.53
2023-08-07T07:05:48.225Z,30.50
2023-08-07T07:06:48.258Z,30.41
2023-08-07T07:07:48.270Z,30.34
2023-08-07T07:08:48.295Z,30.27
2023-08-07T07:09:48.330Z,30.23
2023-08-07T07:10:48.344Z,30.29
2023-08-07T07:11:48.368Z,30.15
2023-08-07T07:12:48.381Z,30.16
2023-08-07T07:13:48.449Z,30.28
2023-08-07T07:14:48.483Z,30.37
2023-08-07T07:15:48.544Z,30.45
2023-08-07T07:16:48.499Z,30.60
2023-08-07T07:17:48.599Z,30.58
2023-08-07T07:18:48.596Z,30.67
2023-08-07T07:19:48.557Z,30.66
2023-08-07T07:20:48.597Z,30.63
2023-08-07T07:21:48.608Z,30.51
2023-08-07T07:22:48.645Z,30.51
2023-08-07T07:23:48.627Z,30.45
2023-08-07T07:24:48.661Z,30.40
2023-08-07T07:25:48.667Z,30.33
2023-08-07T07:26:48.776Z,30.35
2023-08-07T07:27:48.874Z,30.33
2023-08-07T07:28:48.871Z,30.29
2023-08-07T07:29:48.888Z,30.33
2023-08-07T07:30:48.952Z,30.23
2023-08-07T07:31:48.910Z,30.28
2023-08-07T07:32:49.017Z,30.36
2023-08-07T07:33:48.997Z,30.41
2023-08-07T07:34:49.012Z,30.41
2023-08-07T07:35:49.013Z,30.45
2023-08-07T07:36:49.044Z,30.51
2023-08-07T07:37:49.045Z,30.54
2023-08-07T07:38:49.154Z,30.54
2023-08-07T07:39:49.162Z,30.59
2023-08-07T07:40:49.163Z,30.60
2023-08-07T07:41:49.169Z,30.62
2023-08-07T07:42:49.193Z,30.59
2023-08-07T07:43:49.227Z,30.51
2023-08-07T07:44:49.211Z,30.46
2023-08-07T07:45:49.302Z,30.35
2023-08-07T07:46:49.226Z,30.34
2023-08-07T07:47:49.277Z,30.27
2023-08-07T07:48:49.247Z,30.18
2023-08-07T07:49:49.267Z,30.09
2023-08-07T07:50:49.245Z,30.09
2023-08-07T07:51:49.248Z,30.02
2023-08-07T07:52:49.280Z,30.01
2023-08-07T07:53:57.523Z,30.03
2023-08-07T07:54:50.255Z,30.06
2023-08-07T07:55:49.251Z,30.12
2023-08-07T07:56:49.218Z,30.18
2023-08-07T07:57:49.225Z,30.23
2023-08-07T07:58:49.231Z,30.28
2023-08-07T07:59:49.246Z,30.29
2023-08-07T08:00:49.215Z,30.29
2023-08-07T08:01:49.208Z,30.37
2023-08-07T08:02:49.213Z,30.34
2023-08-07T08:03:49.194Z,30.34
2023-08-07T08:04:49.310Z,30.35
2023-08-07T08:05:49.172Z,30.29
2023-08-07T08:06:49.174Z,30.23
2023-08-07T08:07:49.142Z,30.25
2023-08-07T08:08:49.176Z,30.18
2023-08-07T08:09:49.151Z,30.08
2023-08-07T08:10:49.307Z,30.09
2023-08-07T08:11:49.136Z,30.08
2023-08-07T08:12:49.114Z,29.93
2023-08-07T08:13:50.113Z,29.86
2023-08-07T08:14:56.271Z,29.73
2023-08-07T08:15:50.116Z,29.77
2023-08-07T08:16:49.083Z,29.65
2023-08-07T08:17:49.138Z,29.64
2023-08-07T08:18:49.061Z,29.71
2023-08-07T08:19:50.863Z,29.92
2023-08-07T08:20:49.415Z,30.05
2023-08-07T08:21:49.065Z,30.09
2023-08-07T08:22:49.061Z,30.08
2023-08-07T08:23:49.063Z,30.13
2023-08-07T08:24:49.145Z,30.14
2023-08-07T08:25:49.035Z,30.05
2023-08-07T08:26:49.009Z,30.14
2023-08-07T08:27:49.033Z,30.22
2023-08-07T08:28:49.054Z,30.24
2023-08-07T08:29:49.059Z,30.21
2023-08-07T08:30:49.046Z,30.01
2023-08-07T08:31:49.046Z,29.86
2023-08-07T08:32:49.172Z,29.72
2023-08-07T08:33:49.116Z,29.79
2023-08-07T08:34:49.183Z,29.70
2023-08-07T08:35:49.253Z,29.68
2023-08-07T08:36:49.309Z,29.52
2023-08-07T08:37:49.365Z,29.56
2023-08-07T08:38:49.686Z,29.58
2023-08-07T08:39:49.457Z,29.50
2023-08-07T08:40:49.506Z,29.54
2023-08-07T08:41:49.536Z,29.63
2023-08-07T08:42:49.586Z,29.57
2023-08-07T08:43:49.660Z,29.66
2023-08-07T08:44:49.682Z,29.74
2023-08-07T08:45:49.748Z,29.76
2023-08-07T08:46:49.788Z,29.81
2023-08-07T08:47:49.887Z,29.84
2023-08-07T08:48:49.882Z,29.65
2023-08-07T08:49:49.935Z,29.55
2023-08-07T08:50:49.993Z,29.60
2023-08-07T08:51:50.012Z,29.63
2023-08-07T08:52:50.048Z,29.49
2023-08-07T08:53:50.043Z,29.43
2023-08-07T08:54:50.078Z,29.55
2023-08-07T08:55:50.089Z,29.46
2023-08-07T08:56:50.100Z,29.33
2023-08-07T08:57:50.127Z,29.43
2023-08-07T08:58:50.178Z,29.36
2023-08-07T08:59:50.158Z,29.36
2023-08-07T09:00:50.188Z,29.36
2023-08-07T09:01:50.163Z,29.30
2023-08-07T09:02:50.213Z,29.27
2023-08-07T09:03:50.248Z,29.15
2023-08-07T09:04:50.197Z,29.21
2023-08-07T09:05:50.231Z,29.22
2023-08-07T09:06:50.230Z,29.23
2023-08-07T09:07:50.236Z,29.21
2023-08-07T09:08:50.229Z,29.24
2023-08-07T09:09:50.248Z,29.26
2023-08-07T09:10:50.263Z,29.07
2023-08-07T09:11:50.242Z,28.94
2023-08-07T09:12:50.298Z,29.05
2023-08-07T09:13:50.282Z,29.11
2023-08-07T09:14:50.292Z,29.11
2023-08-07T09:15:50.296Z,29.17
2023-08-07T09:16:50.361Z,29.14
2023-08-07T09:17:50.368Z,29.16
2023-08-07T09:18:50.339Z,29.17
2023-08-07T09:19:50.318Z,29.17
2023-08-07T09:20:50.320Z,29.21
2023-08-07T09:21:50.328Z,29.22
2023-08-07T09:22:50.341Z,29.30
2023-08-07T09:23:50.357Z,29.38
2023-08-07T09:24:50.371Z,29.41
2023-08-07T09:25:50.393Z,29.47
2023-08-07T09:26:50.463Z,29.50
2023-08-07T09:27:50.415Z,29.50
2023-08-07T09:28:50.448Z,29.41
2023-08-07T09:29:50.452Z,29.37
2023-08-07T09:30:50.451Z,29.33
2023-08-07T09:31:50.454Z,29.26
2023-08-07T09:32:50.502Z,29.11
2023-08-07T09:33:50.482Z,29.14
2023-08-07T09:34:50.456Z,29.09
2023-08-07T09:35:50.477Z,29.10
2023-08-07T09:36:50.457Z,29.10
2023-08-07T09:37:50.477Z,29.11
2023-08-07T09:38:50.487Z,28.96
2023-08-07T09:39:50.460Z,29.10
2023-08-07T09:40:50.445Z,28.98
2023-08-07T09:41:50.488Z,29.07
2023-08-07T09:42:50.458Z,29.11
2023-08-07T09:43:50.477Z,29.20
2023-08-07T09:44:50.493Z,29.13
2023-08-07T09:45:50.469Z,29.28
2023-08-07T09:46:50.524Z,29.23
2023-08-07T09:47:50.535Z,29.20
2023-08-07T09:48:50.497Z,29.17
2023-08-07T09:49:50.526Z,29.20
2023-08-07T09:50:50.519Z,29.10
2023-08-07T09:51:50.496Z,29.08
2023-08-07T09:52:50.500Z,29.14
2023-08-07T09:53:50.510Z,29.03
2023-08-07T09:54:50.504Z,28.98
2023-08-07T09:55:50.498Z,28.83
2023-08-07T09:56:50.521Z,29.13
2023-08-07T09:57:50.495Z,28.81
2023-08-07T09:58:50.565Z,28.93
2023-08-07T09:59:50.507Z,28.96
2023-08-07T10:00:50.489Z,28.89
2023-08-07T10:01:50.585Z,28.93
2023-08-07T10:02:50.778Z,28.75
2023-08-07T10:03:50.574Z,29.01
2023-08-07T10:04:50.494Z,29.00
2023-08-07T10:05:50.483Z,28.93
2023-08-07T10:06:50.505Z,28.95
2023-08-07T10:07:50.503Z,28.96
2023-08-07T10:08:50.527Z,28.92
2023-08-07T10:09:50.523Z,28.83
2023-08-07T10:10:50.524Z,28.79
2023-08-07T10:11:50.532Z,28.72
2023-08-07T10:12:50.562Z,28.76
2023-08-07T10:13:50.554Z,28.75
2023-08-07T10:14:50.590Z,28.54
2023-08-07T10:15:50.551Z,28.48
2023-08-07T10:16:50.560Z,28.49
2023-08-07T10:17:50.579Z,28.53
2023-08-07T10:18:50.578Z,28.31
2023-08-07T10:19:50.594Z,28.16
2023-08-07T10:20:50.567Z,28.30
2023-08-07T10:21:50.583Z,28.26
2023-08-07T10:22:50.600Z,28.24
2023-08-07T10:23:50.622Z,28.35
2023-08-07T10:24:50.642Z,28.30
2023-08-07T10:25:50.660Z,28.31
2023-08-07T10:26:50.623Z,28.41
2023-08-07T10:27:50.644Z,28.34
2023-08-07T10:28:50.631Z,28.36
2023-08-07T10:29:50.674Z,28.25
2023-08-07T10:30:50.667Z,28.19
2023-08-07T10:31:50.699Z,28.28
2023-08-07T10:32:50.685Z,28.15
2023-08-07T10:33:50.651Z,28.20
2023-08-07T10:34:50.691Z,28.16
2023-08-07T10:35:50.665Z,28.18
2023-08-07T10:36:50.699Z,28.24
2023-08-07T10:37:50.675Z,28.05
2023-08-07T10:38:50.696Z,28.04
2023-08-07T10:39:50.716Z,28.16
2023-08-07T10:40:50.744Z,28.29
2023-08-07T10:41:50.810Z,28.21
2023-08-07T10:42:50.902Z,27.98
2023-08-07T10:43:50.920Z,28.18
2023-08-07T10:44:51.002Z,28.18
2023-08-07T10:45:51.058Z,28.14
2023-08-07T10:46:51.085Z,28.13
2023-08-07T10:47:51.169Z,28.10
2023-08-07T10:48:51.192Z,28.11
2023-08-07T10:49:51.260Z,28.16
2023-08-07T10:50:51.429Z,28.11
2023-08-07T10:51:51.448Z,28.19
2023-08-07T10:52:51.432Z,28.17
2023-08-07T10:53:51.512Z,28.21
2023-08-07T10:54:51.510Z,28.05
2023-08-07T10:55:51.588Z,28.18
2023-08-07T10:56:51.645Z,28.20
2023-08-07T10:57:51.683Z,28.18
2023-08-07T10:58:51.760Z,28.25
2023-08-07T10:59:51.821Z,28.19
2023-08-07T11:00:51.868Z,28.15
2023-08-07T11:01:52.014Z,28.22
2023-08-07T11:02:51.968Z,28.18
2023-08-07T11:03:52.002Z,28.15
2023-08-07T11:04:52.124Z,28.18
2023-08-07T11:05:52.104Z,28.25
2023-08-07T11:06:52.280Z,28.16
2023-08-07T11:07:52.192Z,28.24
2023-08-07T11:08:52.248Z,28.30
2023-08-07T11:09:52.297Z,28.41
2023-08-07T11:10:52.377Z,28.46
2023-08-07T11:11:52.430Z,28.59
2023-08-07T11:12:52.463Z,28.52
2023-08-07T11:13:52.542Z,28.62
2023-08-07T11:14:52.600Z,28.57
2023-08-07T11:15:52.655Z,28.64
2023-08-07T11:16:52.636Z,28.57
2023-08-07T11:17:52.678Z,28.55
2023-08-07T11:18:52.693Z,28.48
2023-08-07T11:19:52.690Z,28.49
2023-08-07T11:20:52.716Z,28.48
2023-08-07T11:21:52.712Z,28.48
2023-08-07T11:22:52.773Z,28.55
2023-08-07T11:23:52.721Z,28.43
2023-08-07T11:24:52.730Z,28.44
2023-08-07T11:25:52.704Z,28.47
2023-08-07T11:26:52.803Z,28.40
2023-08-07T11:27:52.703Z,28.33
2023-08-07T11:28:52.710Z,28.37
2023-08-07T11:29:52.714Z,28.38
2023-08-07T11:30:52.729Z,28.33
2023-08-07T11:31:52.852Z,28.28
2023-08-07T11:32:52.748Z,28.29
2023-08-07T11:33:52.769Z,28.35
2023-08-07T11:34:52.861Z,28.37
2023-08-07T11:35:52.770Z,28.36
2023-08-07T11:36:52.783Z,28.39
2023-08-07T11:37:52.793Z,28.33
2023-08-07T11:38:53.035Z,28.47
2023-08-07T11:39:52.847Z,28.47
2023-08-07T11:40:52.803Z,28.55
2023-08-07T11:41:52.825Z,28.46
2023-08-07T11:42:52.831Z,28.56
2023-08-07T11:43:52.906Z,28.59
2023-08-07T11:44:52.838Z,28.52
2023-08-07T11:45:52.917Z,28.55
2023-08-07T11:46:52.880Z,28.55
2023-08-07T11:47:52.953Z,28.55
2023-08-07T11:48:52.891Z,28.56
2023-08-07T11:49:52.928Z,28.58
2023-08-07T11:50:52.907Z,28.55
2023-08-07T11:51:52.920Z,28.61
2023-08-07T11:52:52.927Z,28.58
2023-08-07T11:53:52.952Z,28.52
2023-08-07T11:54:52.951Z,28.50
2023-08-07T11:55:52.969Z,28.50
2023-08-07T11:56:52.968Z,28.51
2023-08-07T11:57:52.988Z,28.51
2023-08-07T11:58:52.995Z,28.48
2023-08-07T11:59:53.039Z,28.45
2023-08-07T12:00:53.072Z,28.41
2023-08-07T12:01:53.096Z,28.31
2023-08-07T12:02:53.108Z,28.30
2023-08-07T12:03:53.107Z,28.17
2023-08-07T12:04:53.086Z,28.16
2023-08-07T12:05:53.104Z,28.05
2023-08-07T12:06:53.106Z,28.05
2023-08-07T12:07:53.130Z,28.02
2023-08-07T12:08:53.101Z,28.10
2023-08-07T12:09:53.099Z,28.00
2023-08-07T12:10:53.098Z,28.02
2023-08-07T12:11:53.185Z,28.04
2023-08-07T12:12:53.138Z,28.04
2023-08-07T12:13:53.168Z,28.07
2023-08-07T12:14:53.197Z,27.97
2023-08-07T12:15:53.218Z,27.98
2023-08-07T12:16:53.205Z,27.98
2023-08-07T12:17:53.260Z,27.93
2023-08-07T12:18:53.279Z,28.00
2023-08-07T12:19:53.291Z,27.95
2023-08-07T12:20:53.282Z,27.97
2023-08-07T12:21:53.323Z,27.97
2023-08-07T12:22:53.321Z,28.05
2023-08-07T12:23:53.365Z,27.96
2023-08-07T12:24:53.353Z,27.96
2023-08-07T12:25:53.399Z,27.94
2023-08-07T12:26:53.467Z,27.88
2023-08-07T12:27:53.435Z,27.96
2023-08-07T12:28:53.436Z,27.96
2023-08-07T12:29:53.474Z,27.90
2023-08-07T12:30:53.500Z,27.91
2023-08-07T12:31:53.568Z,27.83
2023-08-07T12:32:53.590Z,27.83
2023-08-07T12:33:54.577Z,27.79
2023-08-07T12:35:53.607Z,27.80
2023-08-07T12:36:53.587Z,27.75
2023-08-07T12:37:53.578Z,27.73
2023-08-07T12:38:53.576Z,27.71
2023-08-07T12:40:53.578Z,27.66
2023-08-07T12:42:53.553Z,27.57
2023-08-07T12:43:53.539Z,27.44
2023-08-07T12:44:53.551Z,27.28
2023-08-07T12:45:53.733Z,27.33
2023-08-07T12:46:53.550Z,27.24
2023-08-07T12:47:53.534Z,27.28
2023-08-07T12:48:53.525Z,27.24
2023-08-07T12:49:53.497Z,27.28
2023-08-07T12:50:53.495Z,27.31
2023-08-07T12:51:53.490Z,27.19
2023-08-07T12:52:53.533Z,27.23
2023-08-07T12:53:53.461Z,27.26
2023-08-07T12:54:53.458Z,27.11
2023-08-07T12:55:53.448Z,27.16
2023-08-07T12:56:53.466Z,27.09